Startpagina
METAR-TAF:

METAR-TAF

Vliegvelden :

Productieplatform

K14-fa-1c, Nederland

breedte: 53-16-10N, lengte: 3-37-40E, hoogte: 28 m

Actueel weer

Dit bericht is 29 minuten geleden gemaakt, om 03:55 UTC
Wind 35 kt uit het westen, variërend tussen het westzuidwesten en het noordwesten
Temperatuur 6°C
Vochtigheid 70%
Druk 1011 hPa
Zicht 10 km of meer
Weinig wolken op 1800 ft
Verspreide wolken op 2200 ft
Gebroken wolken op 2500 ft

METAR: EHKV 190355Z AUTO 28035KT 250V320 9999 FEW018 SCT022 BKN025 06/01 Q1011

Tijdstip: 05:24 (04:24 UTC)


TAF: ontbreekt

Waarnemingen en weersverwachtingen van meer dan 4000 vliegvelden (METAR en TAF).

De beschikbare stations zijn de gele en rode punten op de kaart.

Ga met uw muis naar het station om de naam te zien.

Klik dan om waarnemingen en weersverwachtingen te zien.

kaart wijzigen: klik op de groene knoppen met een zwart kruis om in te zoomen, op de groene knop met een streepje om uit te zoomen of op de groene pijlen voor aangrenzende kaarten.


METAR-TAF: